Time;durP1;ratioP1;P1;durP2;ratioP2;P2;SDS_P1;SDS_P2;PMS_P1;PMS_P2;Temp;Humidity;BMP_temperature;BMP_pressure;BME280_temperature;BME280_humidity;BME280_pressure;Samples;Min_cycle;Max_cycle;Signal;HPM_P1;HPM_P2
2023/09/16 00:02:11;;;;;;;23.73;12.13;;;;;;;;;;6147321;23;20645;-57
2023/09/16 00:04:39;;;;;;;37.08;20.15;;;;;;;;;;6162885;23;20017;-57
2023/09/16 00:07:06;;;;;;;31.38;17.63;;;;;;;;;;6152605;23;20083;-56
2023/09/16 00:09:35;;;;;;;22.17;12.68;;;;;;;;;;6157582;23;20021;-57
2023/09/16 00:12:03;;;;;;;19.43;10.40;;;;;;;;;;6156394;23;20075;-57
2023/09/16 00:14:34;;;;;;;21.90;12.55;;;;;;;;;;6158849;23;20020;-56
2023/09/16 00:17:03;;;;;;;19.58;11.20;;;;;;;;;;6161192;23;20412;-56
2023/09/16 00:19:32;;;;;;;20.73;12.52;;;;;;;;;;6162186;23;20037;-57
2023/09/16 00:21:59;;;;;;;21.75;11.50;;;;;;;;;;6162856;23;20017;-56
2023/09/16 00:24:29;;;;;;;15.03;7.90;;;;;;;;;;6155753;23;20043;-56
2023/09/16 00:26:56;;;;;;;12.85;6.88;;;;;;;;;;6160358;23;20017;-57
2023/09/16 00:29:24;;;;;;;14.45;8.27;;;;;;;;;;6156794;23;20554;-58
2023/09/16 00:31:54;;;;;;;35.92;17.10;;;;;;;;;;6164634;23;20021;-55
2023/09/16 00:34:22;;;;;;;46.83;23.45;;;;;;;;;;6150412;23;20020;-57
2023/09/16 00:36:49;;;;;;;30.23;14.57;;;;;;;;;;6153144;23;20017;-56
2023/09/16 00:39:17;;;;;;;22.55;11.38;;;;;;;;;;6160273;23;20071;-58
2023/09/16 00:41:45;;;;;;;17.63;8.40;;;;;;;;;;6162266;23;20017;-57
2023/09/16 00:44:12;;;;;;;15.10;7.63;;;;;;;;;;6150650;23;20491;-57
2023/09/16 00:46:40;;;;;;;13.23;6.85;;;;;;;;;;6163539;23;20443;-57
2023/09/16 00:49:10;;;;;;;12.93;7.17;;;;;;;;;;6154556;23;20021;-53
2023/09/16 00:51:41;;;;;;;23.90;12.00;;;;;;;;;;6161255;23;20040;-56
2023/09/16 00:54:09;;;;;;;33.10;16.80;;;;;;;;;;6155051;23;20050;-57
2023/09/16 00:56:37;;;;;;;41.72;20.08;;;;;;;;;;6159867;23;20013;-57
2023/09/16 00:59:05;;;;;;;36.00;17.52;;;;;;;;;;6156314;23;20021;-57
2023/09/16 01:01:36;;;;;;;37.57;19.20;;;;;;;;;;6166522;23;20094;-57
2023/09/16 01:04:06;;;;;;;38.30;19.08;;;;;;;;;;6190810;23;20047;-57
2023/09/16 01:06:37;;;;;;;45.03;23.23;;;;;;;;;;6182435;23;20115;-58
2023/09/16 01:09:05;;;;;;;45.50;23.65;;;;;;;;;;6189960;23;20017;-56
2023/09/16 01:11:33;;;;;;;45.70;23.23;;;;;;;;;;6171766;23;20431;-56
2023/09/16 01:14:02;;;;;;;34.33;18.07;;;;;;;;;;6184376;23;20459;-56
2023/09/16 01:16:34;;;;;;;30.17;14.95;;;;;;;;;;6187419;23;20083;-56
2023/09/16 01:19:05;;;;;;;23.90;13.60;;;;;;;;;;6187457;23;20048;-57
2023/09/16 01:21:33;;;;;;;20.58;12.05;;;;;;;;;;6184893;23;20656;-57
2023/09/16 01:24:23;;;;;;;23.05;11.23;;;;;;;;;;6190331;23;20040;-57
2023/09/16 01:26:52;;;;;;;29.27;14.70;;;;;;;;;;6189080;23;20024;-54
2023/09/16 01:29:20;;;;;;;22.25;12.65;;;;;;;;;;6188386;23;20043;-57
2023/09/16 01:31:48;;;;;;;23.50;13.50;;;;;;;;;;6181613;23;20075;-56
2023/09/16 01:34:22;;;;;;;27.17;14.82;;;;;;;;;;6163853;23;20360;-57
2023/09/16 01:36:58;;;;;;;27.13;14.02;;;;;;;;;;6189533;23;20506;-56
2023/09/16 01:39:30;;;;;;;27.20;14.17;;;;;;;;;;6188930;23;20455;-57
2023/09/16 01:41:59;;;;;;;21.42;13.18;;;;;;;;;;6192836;23;20447;-57
2023/09/16 01:44:27;;;;;;;22.83;11.63;;;;;;;;;;6188151;23;20031;-57
2023/09/16 01:46:55;;;;;;;24.33;11.85;;;;;;;;;;6191764;23;20016;-56
2023/09/16 01:49:23;;;;;;;26.65;13.00;;;;;;;;;;6195744;23;20016;-57
2023/09/16 01:51:51;;;;;;;25.93;14.23;;;;;;;;;;6189771;23;20027;-57
2023/09/16 01:54:19;;;;;;;26.45;14.02;;;;;;;;;;6196806;23;20017;-57
2023/09/16 01:56:47;;;;;;;25.73;13.77;;;;;;;;;;6165307;23;20163;-56
2023/09/16 01:59:16;;;;;;;27.20;14.95;;;;;;;;;;6161833;23;20016;-57
2023/09/16 02:01:45;;;;;;;29.92;14.90;;;;;;;;;;6197960;23;20510;-58
2023/09/16 02:04:13;;;;;;;26.07;13.13;;;;;;;;;;6189783;23;20027;-58
2023/09/16 02:06:46;;;;;;;24.20;13.25;;;;;;;;;;6172430;23;20017;-58
2023/09/16 02:09:14;;;;;;;25.60;13.48;;;;;;;;;;6194838;23;20017;-56
2023/09/16 02:11:42;;;;;;;24.55;13.63;;;;;;;;;;6191438;23;20016;-57
2023/09/16 02:14:12;;;;;;;27.10;15.23;;;;;;;;;;6191984;23;20023;-57
2023/09/16 02:16:42;;;;;;;24.87;12.63;;;;;;;;;;6163374;23;20016;-56
2023/09/16 02:19:28;;;;;;;22.48;12.98;;;;;;;;;;6189916;23;20595;-57
2023/09/16 02:21:57;;;;;;;31.17;14.20;;;;;;;;;;6196082;23;20021;-57
2023/09/16 02:24:24;;;;;;;23.23;13.07;;;;;;;;;;6188526;23;20510;-57
2023/09/16 02:26:52;;;;;;;24.75;13.57;;;;;;;;;;6172114;23;20013;-56
2023/09/16 02:29:20;;;;;;;23.80;13.87;;;;;;;;;;6184666;23;20027;-57
2023/09/16 02:31:50;;;;;;;25.27;12.23;;;;;;;;;;6198813;23;20030;-55
2023/09/16 02:34:18;;;;;;;20.88;11.50;;;;;;;;;;6189482;23;20041;-57
2023/09/16 02:36:46;;;;;;;20.73;10.82;;;;;;;;;;6194590;23;20017;-57
2023/09/16 02:39:13;;;;;;;20.40;10.68;;;;;;;;;;6192306;23;20028;-58
2023/09/16 02:41:41;;;;;;;18.50;9.63;;;;;;;;;;6186193;23;20016;-57
2023/09/16 02:44:09;;;;;;;18.13;10.38;;;;;;;;;;6191549;23;20024;-57
2023/09/16 02:46:37;;;;;;;19.48;9.85;;;;;;;;;;6195457;23;20016;-56
2023/09/16 02:49:06;;;;;;;16.67;9.45;;;;;;;;;;6190164;23;20514;-59
2023/09/16 02:51:35;;;;;;;18.00;9.80;;;;;;;;;;6192049;23;20020;-57
2023/09/16 02:54:02;;;;;;;18.67;10.17;;;;;;;;;;6189691;23;20023;-57
2023/09/16 02:56:30;;;;;;;18.45;9.80;;;;;;;;;;6192971;23;20013;-57
2023/09/16 02:58:58;;;;;;;17.73;9.80;;;;;;;;;;6187565;23;20019;-57
2023/09/16 03:01:26;;;;;;;16.48;9.07;;;;;;;;;;6193020;23;20032;-57
2023/09/16 03:03:53;;;;;;;16.50;9.25;;;;;;;;;;6186409;23;20483;-57
2023/09/16 03:06:24;;;;;;;16.10;8.93;;;;;;;;;;6175750;23;20013;-57
2023/09/16 03:08:53;;;;;;;17.50;9.75;;;;;;;;;;6171818;23;20020;-57
2023/09/16 03:11:21;;;;;;;15.80;8.68;;;;;;;;;;6193613;23;20822;-57
2023/09/16 03:13:50;;;;;;;14.30;9.00;;;;;;;;;;6198574;23;20047;-57
2023/09/16 03:16:18;;;;;;;16.15;8.35;;;;;;;;;;6192319;23;20140;-57
2023/09/16 03:18:47;;;;;;;17.70;10.13;;;;;;;;;;6188964;23;20044;-57
2023/09/16 03:21:16;;;;;;;15.75;9.55;;;;;;;;;;6188157;23;20044;-57
2023/09/16 03:23:45;;;;;;;15.80;8.90;;;;;;;;;;6195050;23;20026;-57
2023/09/16 03:26:15;;;;;;;18.85;10.45;;;;;;;;;;6192743;23;20242;-57
2023/09/16 03:28:45;;;;;;;16.50;9.00;;;;;;;;;;6190737;23;20016;-56
2023/09/16 03:31:13;;;;;;;15.00;9.57;;;;;;;;;;6190880;23;20020;-57
2023/09/16 03:33:41;;;;;;;15.43;10.65;;;;;;;;;;6187371;23;20013;-57
2023/09/16 03:36:09;;;;;;;14.40;9.50;;;;;;;;;;6193423;23;20012;-57
2023/09/16 03:38:44;;;;;;;17.15;9.57;;;;;;;;;;6188623;23;20093;-57
2023/09/16 03:41:15;;;;;;;16.20;9.23;;;;;;;;;;6193771;23;20392;-57
2023/09/16 03:43:43;;;;;;;16.60;9.50;;;;;;;;;;6195206;23;20081;-57
2023/09/16 03:46:15;;;;;;;15.15;9.68;;;;;;;;;;6189477;23;20032;-57
2023/09/16 03:48:43;;;;;;;14.88;9.25;;;;;;;;;;6196425;23;20012;-57
2023/09/16 03:51:10;;;;;;;15.07;9.40;;;;;;;;;;6188620;23;20042;-57
2023/09/16 03:53:38;;;;;;;16.00;9.88;;;;;;;;;;6195845;23;20020;-57
2023/09/16 03:56:23;;;;;;;15.40;9.00;;;;;;;;;;6191067;23;20040;-57
2023/09/16 03:58:51;;;;;;;14.35;9.40;;;;;;;;;;6186647;23;20013;-57
2023/09/16 04:01:19;;;;;;;14.38;8.45;;;;;;;;;;6192673;23;20120;-57
2023/09/16 04:03:47;;;;;;;16.05;9.75;;;;;;;;;;6185479;23;20043;-58
2023/09/16 04:06:15;;;;;;;15.63;9.38;;;;;;;;;;6198271;23;20020;-57
2023/09/16 04:08:43;;;;;;;16.20;8.93;;;;;;;;;;6186998;23;20055;-57
2023/09/16 04:11:11;;;;;;;14.40;9.10;;;;;;;;;;6195893;23;20016;-57
2023/09/16 04:13:40;;;;;;;15.43;9.02;;;;;;;;;;6181514;23;20384;-55
2023/09/16 04:16:08;;;;;;;14.32;9.30;;;;;;;;;;6197391;23;20055;-56
2023/09/16 04:18:36;;;;;;;14.73;8.88;;;;;;;;;;6188269;23;20092;-57
2023/09/16 04:21:04;;;;;;;16.67;9.03;;;;;;;;;;6163512;23;20730;-57
2023/09/16 04:23:32;;;;;;;14.05;9.13;;;;;;;;;;6196552;23;20017;-57
2023/09/16 04:26:00;;;;;;;13.38;9.15;;;;;;;;;;6188362;23;20384;-57
2023/09/16 04:28:28;;;;;;;15.63;10.13;;;;;;;;;;6198037;23;20483;-57
2023/09/16 04:30:58;;;;;;;17.17;10.32;;;;;;;;;;6187102;23;20024;-56
2023/09/16 04:33:26;;;;;;;16.63;10.13;;;;;;;;;;6196713;23;20508;-54
2023/09/16 04:35:54;;;;;;;16.80;9.57;;;;;;;;;;6187706;23;20016;-56
2023/09/16 04:38:22;;;;;;;15.88;9.68;;;;;;;;;;6194012;23;20017;-53
2023/09/16 04:40:50;;;;;;;15.45;9.50;;;;;;;;;;6182953;23;20092;-57
2023/09/16 04:43:18;;;;;;;16.35;9.18;;;;;;;;;;6197953;23;20031;-57
2023/09/16 04:45:49;;;;;;;16.13;9.10;;;;;;;;;;6188786;23;20052;-56
2023/09/16 04:48:22;;;;;;;13.68;8.57;;;;;;;;;;6186462;23;20017;-57
2023/09/16 04:50:50;;;;;;;14.07;8.77;;;;;;;;;;6165927;23;20016;-54
2023/09/16 04:53:18;;;;;;;15.23;9.77;;;;;;;;;;6185932;23;20031;-55
2023/09/16 04:55:46;;;;;;;16.33;9.45;;;;;;;;;;6190507;23;20027;-57
2023/09/16 04:58:14;;;;;;;17.60;10.17;;;;;;;;;;6181896;23;20445;-57
2023/09/16 05:00:42;;;;;;;16.73;10.32;;;;;;;;;;6185594;23;20013;-56
2023/09/16 05:03:10;;;;;;;14.80;9.43;;;;;;;;;;6176934;23;20360;-56
2023/09/16 05:05:40;;;;;;;17.92;9.05;;;;;;;;;;6190774;23;20153;-56
2023/09/16 05:08:08;;;;;;;16.42;9.27;;;;;;;;;;6187372;23;20024;-57
2023/09/16 05:10:35;;;;;;;15.37;8.73;;;;;;;;;;6185000;23;20336;-57
2023/09/16 05:13:05;;;;;;;15.52;8.02;;;;;;;;;;6191071;23;20024;-55
2023/09/16 05:15:32;;;;;;;16.52;8.93;;;;;;;;;;6188080;23;20021;-57
2023/09/16 05:18:00;;;;;;;15.63;8.45;;;;;;;;;;6193225;23;20040;-55
2023/09/16 05:20:32;;;;;;;14.10;8.55;;;;;;;;;;6186352;23;20012;-57
2023/09/16 05:23:01;;;;;;;13.27;8.57;;;;;;;;;;6183768;23;20036;-55
2023/09/16 05:25:30;;;;;;;13.40;7.35;;;;;;;;;;6192627;23;20017;-57
2023/09/16 05:27:58;;;;;;;13.85;8.50;;;;;;;;;;6184722;23;20036;-56
2023/09/16 05:30:26;;;;;;;12.55;8.13;;;;;;;;;;6188465;23;20017;-56
2023/09/16 05:32:55;;;;;;;13.38;8.80;;;;;;;;;;6189642;23;20052;-57
2023/09/16 05:35:23;;;;;;;15.17;8.30;;;;;;;;;;6176745;23;20023;-56
2023/09/16 05:37:50;;;;;;;14.40;8.45;;;;;;;;;;6190091;23;20044;-56
2023/09/16 05:40:20;;;;;;;17.30;9.20;;;;;;;;;;6177188;23;20021;-56
2023/09/16 05:42:47;;;;;;;16.98;8.77;;;;;;;;;;6192311;23;20017;-56
2023/09/16 05:45:15;;;;;;;14.65;8.85;;;;;;;;;;6180137;23;20513;-56
2023/09/16 05:47:44;;;;;;;18.23;9.20;;;;;;;;;;6192175;23;20091;-55
2023/09/16 05:50:13;;;;;;;15.90;9.02;;;;;;;;;;6182092;23;20375;-58
2023/09/16 05:52:40;;;;;;;16.77;9.57;;;;;;;;;;6191873;23;20024;-55
2023/09/16 05:55:09;;;;;;;15.07;9.07;;;;;;;;;;6184738;23;20020;-55
2023/09/16 05:57:38;;;;;;;14.25;9.13;;;;;;;;;;6187825;23;20123;-58
2023/09/16 06:00:06;;;;;;;15.50;9.57;;;;;;;;;;6183364;23;20067;-57
2023/09/16 06:02:38;;;;;;;17.23;10.13;;;;;;;;;;6190368;23;20351;-58
2023/09/16 06:05:08;;;;;;;18.73;10.50;;;;;;;;;;6186485;23;20028;-57
2023/09/16 06:07:36;;;;;;;20.30;10.90;;;;;;;;;;6193253;23;20038;-57
2023/09/16 06:10:06;;;;;;;19.88;10.60;;;;;;;;;;6159025;23;20399;-57
2023/09/16 06:12:34;;;;;;;18.00;11.17;;;;;;;;;;6190075;23;20016;-57
2023/09/16 06:15:04;;;;;;;18.75;11.35;;;;;;;;;;6161052;23;20029;-57
2023/09/16 06:17:32;;;;;;;19.13;11.05;;;;;;;;;;6190466;23;20072;-56
2023/09/16 06:20:00;;;;;;;17.85;10.63;;;;;;;;;;6191274;23;20024;-56
2023/09/16 06:22:28;;;;;;;18.58;10.45;;;;;;;;;;6180543;23;20063;-58
2023/09/16 06:24:55;;;;;;;16.70;10.80;;;;;;;;;;6191473;23;20012;-54
2023/09/16 06:27:23;;;;;;;20.52;11.30;;;;;;;;;;6183645;23;20021;-57
2023/09/16 06:29:52;;;;;;;20.52;12.10;;;;;;;;;;6189877;23;20077;-56
2023/09/16 06:32:21;;;;;;;23.95;13.73;;;;;;;;;;6185335;23;20023;-55
2023/09/16 06:34:49;;;;;;;25.17;14.13;;;;;;;;;;6165273;23;20051;-57
2023/09/16 06:37:17;;;;;;;21.80;13.90;;;;;;;;;;6184273;23;20016;-57
2023/09/16 06:39:45;;;;;;;22.75;14.43;;;;;;;;;;6190200;23;20095;-55
2023/09/16 06:42:13;;;;;;;25.48;13.95;;;;;;;;;;6180064;23;20033;-57
2023/09/16 06:44:42;;;;;;;22.90;14.30;;;;;;;;;;6189170;23;20451;-58
2023/09/16 06:47:09;;;;;;;25.40;15.02;;;;;;;;;;6186180;23;20024;-57
2023/09/16 06:49:38;;;;;;;24.50;14.70;;;;;;;;;;6189395;23;20024;-56
2023/09/16 06:52:06;;;;;;;22.67;13.80;;;;;;;;;;6186057;23;20406;-57
2023/09/16 06:54:35;;;;;;;23.65;13.48;;;;;;;;;;6187683;23;20009;-58
2023/09/16 06:57:03;;;;;;;21.55;13.35;;;;;;;;;;6190509;23;20509;-56
2023/09/16 06:59:32;;;;;;;28.25;14.57;;;;;;;;;;6183336;23;20020;-57
2023/09/16 07:01:59;;;;;;;24.57;15.07;;;;;;;;;;6188782;23;20525;-57
2023/09/16 07:04:27;;;;;;;28.48;16.77;;;;;;;;;;6184575;23;20012;-59
2023/09/16 07:06:56;;;;;;;30.08;17.38;;;;;;;;;;6186448;23;20017;-57
2023/09/16 07:09:24;;;;;;;31.65;18.20;;;;;;;;;;6189689;23;20503;-58
2023/09/16 07:11:52;;;;;;;35.50;20.30;;;;;;;;;;6184440;23;20023;-56
2023/09/16 07:14:20;;;;;;;36.33;21.03;;;;;;;;;;6189204;23;20717;-57
2023/09/16 07:16:48;;;;;;;39.03;21.60;;;;;;;;;;6160135;23;20012;-56
2023/09/16 07:19:16;;;;;;;41.38;21.98;;;;;;;;;;6188099;23;20017;-58
2023/09/16 07:21:44;;;;;;;43.95;23.23;;;;;;;;;;6194006;23;20016;-56
2023/09/16 07:24:13;;;;;;;40.03;23.13;;;;;;;;;;6178236;23;20012;-54
2023/09/16 07:26:42;;;;;;;40.63;23.33;;;;;;;;;;6192854;23;20025;-58
2023/09/16 07:29:10;;;;;;;43.70;24.10;;;;;;;;;;6177718;23;20664;-58
2023/09/16 07:31:38;;;;;;;45.35;24.30;;;;;;;;;;6186222;23;20107;-56
2023/09/16 07:34:06;;;;;;;44.38;24.02;;;;;;;;;;6178571;23;20328;-58
2023/09/16 07:36:34;;;;;;;48.25;25.17;;;;;;;;;;6191365;23;20023;-58
2023/09/16 07:39:01;;;;;;;48.33;25.53;;;;;;;;;;6183555;23;20079;-55
2023/09/16 07:41:31;;;;;;;51.97;25.90;;;;;;;;;;6189104;23;20020;-57
2023/09/16 07:43:59;;;;;;;56.05;25.58;;;;;;;;;;6185816;23;20292;-57
2023/09/16 07:46:27;;;;;;;51.55;25.98;;;;;;;;;;6184945;23;20505;-57
2023/09/16 07:48:55;;;;;;;51.55;25.25;;;;;;;;;;6181492;23;20668;-58
2023/09/16 07:51:23;;;;;;;50.40;25.60;;;;;;;;;;6188242;23;20040;-57
2023/09/16 07:53:51;;;;;;;46.40;24.83;;;;;;;;;;6185591;23;20020;-58
2023/09/16 07:56:20;;;;;;;46.97;25.05;;;;;;;;;;6184554;23;20095;-57
2023/09/16 07:58:50;;;;;;;47.45;24.67;;;;;;;;;;6192088;23;20028;-57
2023/09/16 08:01:18;;;;;;;48.63;24.92;;;;;;;;;;6185390;23;20020;-58
2023/09/16 08:03:46;;;;;;;45.17;24.77;;;;;;;;;;6162961;23;20016;-58
2023/09/16 08:06:14;;;;;;;49.97;24.83;;;;;;;;;;6184032;23;20035;-58
2023/09/16 08:08:42;;;;;;;42.65;24.67;;;;;;;;;;6192407;23;20040;-57
2023/09/16 08:11:09;;;;;;;44.53;24.67;;;;;;;;;;6178969;23;20016;-57
2023/09/16 08:13:38;;;;;;;44.85;24.40;;;;;;;;;;6190844;23;20054;-58
2023/09/16 08:16:07;;;;;;;48.07;25.30;;;;;;;;;;6194287;23;20027;-57
2023/09/16 08:18:35;;;;;;;45.40;25.10;;;;;;;;;;6181033;23;20021;-58
2023/09/16 08:21:03;;;;;;;50.33;24.45;;;;;;;;;;6189859;23;20024;-57
2023/09/16 08:23:31;;;;;;;46.65;25.50;;;;;;;;;;6192311;23;20016;-58
2023/09/16 08:25:59;;;;;;;44.55;26.25;;;;;;;;;;6185121;23;20422;-58
2023/09/16 08:28:27;;;;;;;41.93;24.83;;;;;;;;;;6189618;23;20013;-57
2023/09/16 08:30:54;;;;;;;40.03;23.13;;;;;;;;;;6185913;23;20040;-57
2023/09/16 08:33:24;;;;;;;41.97;24.23;;;;;;;;;;6191187;23;20024;-57
2023/09/16 08:35:52;;;;;;;41.17;23.33;;;;;;;;;;6182747;23;20039;-57
2023/09/16 08:38:20;;;;;;;38.50;21.52;;;;;;;;;;6190664;23;20472;-57
2023/09/16 08:40:50;;;;;;;41.17;23.63;;;;;;;;;;6185090;23;20017;-57
2023/09/16 08:43:22;;;;;;;38.25;23.45;;;;;;;;;;6190126;23;20408;-58
2023/09/16 08:45:54;;;;;;;45.95;25.65;;;;;;;;;;6193849;23;20016;-55
2023/09/16 08:48:26;;;;;;;39.30;23.67;;;;;;;;;;6185936;23;20036;-57
2023/09/16 08:50:54;;;;;;;41.53;23.13;;;;;;;;;;6192747;23;20020;-58
2023/09/16 08:53:25;;;;;;;38.17;22.67;;;;;;;;;;6183744;23;20259;-56
2023/09/16 08:55:55;;;;;;;36.83;22.73;;;;;;;;;;6194221;23;20039;-57
2023/09/16 08:58:23;;;;;;;38.83;23.00;;;;;;;;;;6183571;23;20017;-56
2023/09/16 09:00:50;;;;;;;42.13;23.92;;;;;;;;;;6189763;23;20301;-56
2023/09/16 09:03:19;;;;;;;38.83;23.42;;;;;;;;;;6184939;23;20030;-56
2023/09/16 09:05:49;;;;;;;39.90;22.27;;;;;;;;;;6192837;23;20039;-56
2023/09/16 09:08:18;;;;;;;37.88;21.25;;;;;;;;;;6186308;23;20020;-56
2023/09/16 09:10:47;;;;;;;37.40;22.70;;;;;;;;;;6188029;23;20013;-57
2023/09/16 09:13:15;;;;;;;38.90;23.27;;;;;;;;;;6186778;23;20012;-57
2023/09/16 09:15:43;;;;;;;39.80;22.45;;;;;;;;;;6191644;23;20534;-57
2023/09/16 09:18:12;;;;;;;39.20;23.10;;;;;;;;;;6191088;23;20454;-58
2023/09/16 09:20:40;;;;;;;38.88;22.33;;;;;;;;;;6191174;23;20782;-57
2023/09/16 09:23:09;;;;;;;39.47;23.80;;;;;;;;;;6156994;23;20064;-57
2023/09/16 09:25:43;;;;;;;39.30;22.40;;;;;;;;;;6188597;23;20012;-56
2023/09/16 09:28:12;;;;;;;38.33;21.63;;;;;;;;;;6189642;23;20027;-56
2023/09/16 09:30:41;;;;;;;35.73;22.30;;;;;;;;;;6185064;23;20052;-56
2023/09/16 09:33:13;;;;;;;38.72;21.42;;;;;;;;;;6193118;23;20016;-56
2023/09/16 09:35:41;;;;;;;34.55;20.90;;;;;;;;;;6181757;23;20017;-57
2023/09/16 09:38:10;;;;;;;37.42;21.58;;;;;;;;;;6187434;23;20016;-54
2023/09/16 09:40:38;;;;;;;37.42;22.42;;;;;;;;;;6183817;23;20016;-56
2023/09/16 09:43:06;;;;;;;36.73;20.10;;;;;;;;;;6192347;23;20514;-57
2023/09/16 09:45:36;;;;;;;40.28;21.60;;;;;;;;;;6180943;23;20059;-58
2023/09/16 09:48:04;;;;;;;31.60;19.08;;;;;;;;;;6192720;23;20477;-57
2023/09/16 09:50:33;;;;;;;35.70;18.98;;;;;;;;;;6184421;23;20103;-56
2023/09/16 09:53:03;;;;;;;32.50;18.38;;;;;;;;;;6162868;23;20024;-57
2023/09/16 09:55:32;;;;;;;32.13;16.93;;;;;;;;;;6194093;23;20221;-57
2023/09/16 09:58:01;;;;;;;28.45;17.73;;;;;;;;;;6157755;23;20344;-56
2023/09/16 10:00:28;;;;;;;28.63;16.50;;;;;;;;;;6183432;23;20059;-57
2023/09/16 10:02:59;;;;;;;27.58;15.30;;;;;;;;;;6182898;23;20044;-56
2023/09/16 10:05:27;;;;;;;27.95;14.75;;;;;;;;;;6190311;23;20567;-57
2023/09/16 10:07:55;;;;;;;44.83;17.67;;;;;;;;;;6185952;23;20437;-56
2023/09/16 10:10:24;;;;;;;30.45;16.38;;;;;;;;;;6182719;23;20044;-57
2023/09/16 10:12:54;;;;;;;31.48;15.80;;;;;;;;;;6187416;23;20062;-57
2023/09/16 10:15:23;;;;;;;25.58;15.13;;;;;;;;;;6183566;23;20609;-56
2023/09/16 10:17:51;;;;;;;22.65;13.75;;;;;;;;;;6190501;23;20044;-57
2023/09/16 10:20:20;;;;;;;26.20;15.07;;;;;;;;;;6185143;23;20071;-57
2023/09/16 10:22:47;;;;;;;28.60;15.65;;;;;;;;;;6185159;23;20092;-58
2023/09/16 10:25:17;;;;;;;24.55;14.98;;;;;;;;;;6188435;23;20016;-57
2023/09/16 10:27:49;;;;;;;23.33;14.90;;;;;;;;;;6187848;23;20020;-58
2023/09/16 10:30:17;;;;;;;26.05;15.27;;;;;;;;;;6186612;23;20466;-58
2023/09/16 10:32:45;;;;;;;27.70;15.90;;;;;;;;;;6186354;23;20115;-57
2023/09/16 10:35:13;;;;;;;28.95;16.63;;;;;;;;;;6189710;23;20179;-57
2023/09/16 10:37:42;;;;;;;28.48;15.43;;;;;;;;;;6186862;23;20013;-58
2023/09/16 10:40:11;;;;;;;30.70;17.40;;;;;;;;;;6185062;23;20448;-57
2023/09/16 10:42:40;;;;;;;28.98;16.98;;;;;;;;;;6185818;23;20013;-58
2023/09/16 10:45:11;;;;;;;32.77;18.33;;;;;;;;;;6183284;23;20012;-57
2023/09/16 10:47:40;;;;;;;26.38;16.63;;;;;;;;;;6192863;23;20021;-58
2023/09/16 10:50:08;;;;;;;31.80;17.20;;;;;;;;;;6173972;23;20019;-57
2023/09/16 10:52:40;;;;;;;31.52;17.95;;;;;;;;;;6164680;23;20020;-58
2023/09/16 10:55:13;;;;;;;28.90;18.52;;;;;;;;;;6184572;23;20024;-58
2023/09/16 10:57:48;;;;;;;30.77;19.17;;;;;;;;;;6191235;23;20013;-58
2023/09/16 11:00:19;;;;;;;31.60;17.95;;;;;;;;;;6186299;23;20044;-57
2023/09/16 11:02:53;;;;;;;34.03;19.50;;;;;;;;;;6184690;23;20017;-58
2023/09/16 11:05:21;;;;;;;30.00;18.92;;;;;;;;;;6190745;23;20097;-57
2023/09/16 11:07:50;;;;;;;31.02;18.45;;;;;;;;;;6178947;23;20020;-58
2023/09/16 11:10:17;;;;;;;37.00;19.13;;;;;;;;;;6188499;23;20086;-57
2023/09/16 11:12:46;;;;;;;34.45;19.63;;;;;;;;;;6180342;23;20044;-58
2023/09/16 11:15:15;;;;;;;32.63;19.10;;;;;;;;;;6191273;23;20026;-58
2023/09/16 11:17:43;;;;;;;31.73;18.55;;;;;;;;;;6189300;23;20084;-58
2023/09/16 11:20:12;;;;;;;31.25;17.70;;;;;;;;;;6181244;23;20414;-57
2023/09/16 11:22:47;;;;;;;34.07;19.03;;;;;;;;;;6187996;23;20074;-57
2023/09/16 11:25:15;;;;;;;32.92;18.88;;;;;;;;;;6182605;23;20017;-58
2023/09/16 11:27:44;;;;;;;29.95;18.67;;;;;;;;;;6191496;23;20047;-58
2023/09/16 11:30:12;;;;;;;35.60;19.65;;;;;;;;;;6183239;23;20020;-58
2023/09/16 11:32:42;;;;;;;37.35;20.13;;;;;;;;;;6190353;23;20016;-58
2023/09/16 11:35:10;;;;;;;36.27;21.17;;;;;;;;;;6181846;23;20063;-56
2023/09/16 11:37:39;;;;;;;35.72;19.80;;;;;;;;;;6188527;23;20012;-57
2023/09/16 11:40:10;;;;;;;33.88;20.88;;;;;;;;;;6186449;23;20017;-56
2023/09/16 11:42:40;;;;;;;35.15;20.17;;;;;;;;;;6187772;23;20017;-59
2023/09/16 11:45:09;;;;;;;33.35;19.98;;;;;;;;;;6193162;23;20017;-58
2023/09/16 11:47:36;;;;;;;36.90;20.23;;;;;;;;;;6180841;23;20016;-57
2023/09/16 11:50:07;;;;;;;32.38;19.83;;;;;;;;;;6188758;23;20016;-57
2023/09/16 11:52:39;;;;;;;40.30;20.55;;;;;;;;;;6182364;23;20020;-58
2023/09/16 11:55:07;;;;;;;37.38;22.27;;;;;;;;;;6192308;23;20013;-58
2023/09/16 11:57:35;;;;;;;37.88;21.45;;;;;;;;;;6184641;23;20021;-57
2023/09/16 12:00:04;;;;;;;36.30;21.53;;;;;;;;;;6189224;23;20017;-58
2023/09/16 12:02:32;;;;;;;33.92;20.80;;;;;;;;;;6183048;23;20052;-57
2023/09/16 12:05:02;;;;;;;36.80;20.25;;;;;;;;;;6189869;23;20020;-57
2023/09/16 12:07:35;;;;;;;35.67;21.30;;;;;;;;;;6187542;23;20103;-57
2023/09/16 12:10:06;;;;;;;38.58;22.98;;;;;;;;;;6183033;23;20024;-58
2023/09/16 12:12:34;;;;;;;37.77;23.03;;;;;;;;;;6192443;23;20039;-58
2023/09/16 12:15:02;;;;;;;40.00;23.83;;;;;;;;;;6184473;23;20023;-58
2023/09/16 12:17:30;;;;;;;38.88;24.00;;;;;;;;;;6187250;23;20019;-58
2023/09/16 12:19:58;;;;;;;43.72;23.50;;;;;;;;;;6186737;23;20025;-58
2023/09/16 12:22:26;;;;;;;40.50;24.33;;;;;;;;;;6183089;23;20082;-58
2023/09/16 12:24:54;;;;;;;41.27;24.67;;;;;;;;;;6190226;23;20040;-57
2023/09/16 12:27:25;;;;;;;42.65;24.40;;;;;;;;;;6180568;23;20022;-58
2023/09/16 12:29:52;;;;;;;41.53;24.55;;;;;;;;;;6190498;23;20443;-57
2023/09/16 12:32:21;;;;;;;40.33;24.25;;;;;;;;;;6153371;23;20329;-57
2023/09/16 12:35:02;;;;;;;39.35;24.10;;;;;;;;;;6189782;23;20031;-56
2023/09/16 12:37:30;;;;;;;37.33;24.33;;;;;;;;;;6183795;23;20024;-57
2023/09/16 12:39:59;;;;;;;43.72;24.85;;;;;;;;;;6189689;23;20059;-58
2023/09/16 12:42:28;;;;;;;35.17;22.83;;;;;;;;;;6184974;23;20013;-58
2023/09/16 12:44:59;;;;;;;38.25;24.00;;;;;;;;;;6190828;23;20269;-58
2023/09/16 12:47:27;;;;;;;39.13;23.88;;;;;;;;;;6165739;23;20060;-57
2023/09/16 12:49:55;;;;;;;36.63;24.30;;;;;;;;;;6184643;23;20040;-59
2023/09/16 12:52:23;;;;;;;38.78;24.35;;;;;;;;;;6190401;23;20021;-58
2023/09/16 12:54:52;;;;;;;38.25;22.15;;;;;;;;;;6183031;23;20030;-57
2023/09/16 12:57:21;;;;;;;36.95;23.17;;;;;;;;;;6190492;23;20629;-58
2023/09/16 13:00:02;;;;;;;36.17;22.50;;;;;;;;;;6186379;23;20392;-54
2023/09/16 13:02:35;;;;;;;37.17;22.53;;;;;;;;;;6188576;23;20025;-58
2023/09/16 13:05:10;;;;;;;34.42;22.08;;;;;;;;;;6184102;23;20527;-58
2023/09/16 13:07:38;;;;;;;33.88;21.50;;;;;;;;;;6183494;23;20024;-56
2023/09/16 13:10:07;;;;;;;37.13;21.77;;;;;;;;;;6189887;23;20025;-58
2023/09/16 13:12:35;;;;;;;39.60;22.42;;;;;;;;;;6190112;23;20016;-57
2023/09/16 13:15:11;;;;;;;36.57;22.33;;;;;;;;;;6167874;23;20090;-58
2023/09/16 13:17:39;;;;;;;33.47;20.75;;;;;;;;;;6181793;23;20427;-58
2023/09/16 13:20:12;;;;;;;33.45;20.52;;;;;;;;;;6191634;23;20054;-58
2023/09/16 13:22:40;;;;;;;33.78;19.65;;;;;;;;;;6181863;23;20013;-57
2023/09/16 13:25:26;;;;;;;30.25;19.05;;;;;;;;;;6186894;23;20404;-57
2023/09/16 13:27:54;;;;;;;34.00;19.33;;;;;;;;;;6159082;23;20016;-58
2023/09/16 13:30:27;;;;;;;31.25;18.38;;;;;;;;;;6190831;23;20044;-57
2023/09/16 13:32:56;;;;;;;28.05;17.30;;;;;;;;;;6186042;23;20024;-57
2023/09/16 13:35:24;;;;;;;30.63;17.60;;;;;;;;;;6188626;23;20023;-57
2023/09/16 13:37:51;;;;;;;27.85;18.38;;;;;;;;;;6189266;23;20016;-57
2023/09/16 13:40:22;;;;;;;31.90;17.90;;;;;;;;;;6185656;23;20021;-57
2023/09/16 13:42:50;;;;;;;26.50;17.15;;;;;;;;;;6193083;23;20115;-56
2023/09/16 13:45:17;;;;;;;25.55;17.23;;;;;;;;;;6176457;23;20043;-57
2023/09/16 13:48:04;;;;;;;23.67;16.25;;;;;;;;;;6190592;23;20399;-58
2023/09/16 13:50:32;;;;;;;25.88;16.85;;;;;;;;;;6183801;23;20021;-57
2023/09/16 13:52:59;;;;;;;25.60;18.07;;;;;;;;;;6190719;23;20509;-57
2023/09/16 13:55:27;;;;;;;28.00;16.35;;;;;;;;;;6180112;23;20043;-58
2023/09/16 13:57:58;;;;;;;26.48;16.70;;;;;;;;;;6187112;23;20421;-58
2023/09/16 14:00:26;;;;;;;22.25;15.77;;;;;;;;;;6186555;23;20017;-57
2023/09/16 14:02:55;;;;;;;24.75;14.52;;;;;;;;;;6180720;23;20013;-58
2023/09/16 14:05:23;;;;;;;26.50;15.90;;;;;;;;;;6191478;23;20036;-58
2023/09/16 14:07:53;;;;;;;23.45;15.98;;;;;;;;;;6186840;23;20023;-56
2023/09/16 14:10:22;;;;;;;24.35;15.75;;;;;;;;;;6191157;23;20379;-57
2023/09/16 14:12:50;;;;;;;22.30;14.93;;;;;;;;;;6182309;23;20067;-57
2023/09/16 14:15:18;;;;;;;22.55;14.82;;;;;;;;;;6190671;23;20017;-57
2023/09/16 14:17:46;;;;;;;24.17;15.33;;;;;;;;;;6188140;23;20017;-58
2023/09/16 14:20:15;;;;;;;21.60;13.18;;;;;;;;;;6188175;23;20375;-57
2023/09/16 14:22:43;;;;;;;23.30;16.25;;;;;;;;;;6182691;23;20436;-57
2023/09/16 14:25:11;;;;;;;26.10;15.98;;;;;;;;;;6191780;23;20086;-57
2023/09/16 14:27:39;;;;;;;25.60;16.05;;;;;;;;;;6183436;23;20023;-57
2023/09/16 14:30:07;;;;;;;23.00;15.20;;;;;;;;;;6190421;23;20016;-57
2023/09/16 14:32:35;;;;;;;22.58;14.43;;;;;;;;;;6185526;23;20021;-58